sensor_id;sensor_type;location;lat;lon;timestamp;temperature;humidity
44487;DHT22;30191;50.908;6.962;2023-12-20T00:00:26;8.70;99.90
44487;DHT22;30191;50.908;6.962;2023-12-20T00:02:51;8.70;99.90
44487;DHT22;30191;50.908;6.962;2023-12-20T00:05:17;8.80;99.90
44487;DHT22;30191;50.908;6.962;2023-12-20T00:07:42;8.80;99.90
44487;DHT22;30191;50.908;6.962;2023-12-20T00:10:09;8.80;99.90
44487;DHT22;30191;50.908;6.962;2023-12-20T00:12:34;8.80;99.90
44487;DHT22;30191;50.908;6.962;2023-12-20T00:15:00;8.80;99.90
44487;DHT22;30191;50.908;6.962;2023-12-20T00:17:25;8.80;99.90
44487;DHT22;30191;50.908;6.962;2023-12-20T00:19:51;8.80;99.90
44487;DHT22;30191;50.908;6.962;2023-12-20T00:22:17;8.80;99.90
44487;DHT22;30191;50.908;6.962;2023-12-20T00:24:42;8.80;99.90
44487;DHT22;30191;50.908;6.962;2023-12-20T00:27:08;8.80;99.90
44487;DHT22;30191;50.908;6.962;2023-12-20T00:29:33;8.80;99.90
44487;DHT22;30191;50.908;6.962;2023-12-20T00:31:59;8.80;99.90
44487;DHT22;30191;50.908;6.962;2023-12-20T00:34:25;8.90;99.90
44487;DHT22;30191;50.908;6.962;2023-12-20T00:36:50;8.80;99.90
44487;DHT22;30191;50.908;6.962;2023-12-20T00:39:16;8.80;99.90
44487;DHT22;30191;50.908;6.962;2023-12-20T00:41:42;8.90;99.90
44487;DHT22;30191;50.908;6.962;2023-12-20T00:44:07;8.80;99.90
44487;DHT22;30191;50.908;6.962;2023-12-20T00:46:33;8.80;99.90
44487;DHT22;30191;50.908;6.962;2023-12-20T00:48:58;8.80;99.90
44487;DHT22;30191;50.908;6.962;2023-12-20T00:51:24;8.80;99.90
44487;DHT22;30191;50.908;6.962;2023-12-20T00:53:50;8.80;99.90
44487;DHT22;30191;50.908;6.962;2023-12-20T00:56:20;8.80;99.90
44487;DHT22;30191;50.908;6.962;2023-12-20T00:58:46;8.90;99.90
44487;DHT22;30191;50.908;6.962;2023-12-20T01:01:11;8.80;99.90
44487;DHT22;30191;50.908;6.962;2023-12-20T01:03:38;8.80;99.90
44487;DHT22;30191;50.908;6.962;2023-12-20T01:06:04;8.80;99.90
44487;DHT22;30191;50.908;6.962;2023-12-20T01:08:30;8.80;99.90
44487;DHT22;30191;50.908;6.962;2023-12-20T01:10:56;8.80;99.90
44487;DHT22;30191;50.908;6.962;2023-12-20T01:13:21;8.80;99.90
44487;DHT22;30191;50.908;6.962;2023-12-20T01:15:47;8.80;99.90
44487;DHT22;30191;50.908;6.962;2023-12-20T01:18:13;8.80;99.90
44487;DHT22;30191;50.908;6.962;2023-12-20T01:20:40;8.80;99.90
44487;DHT22;30191;50.908;6.962;2023-12-20T01:23:05;8.80;99.90
44487;DHT22;30191;50.908;6.962;2023-12-20T01:25:31;8.80;99.90
44487;DHT22;30191;50.908;6.962;2023-12-20T01:27:56;8.80;99.90
44487;DHT22;30191;50.908;6.962;2023-12-20T01:30:22;8.70;99.90
44487;DHT22;30191;50.908;6.962;2023-12-20T01:32:48;8.70;99.90
44487;DHT22;30191;50.908;6.962;2023-12-20T01:35:13;8.60;99.90
44487;DHT22;30191;50.908;6.962;2023-12-20T01:37:40;8.60;99.90
44487;DHT22;30191;50.908;6.962;2023-12-20T01:40:06;8.60;99.90
44487;DHT22;30191;50.908;6.962;2023-12-20T01:42:31;8.60;99.90
44487;DHT22;30191;50.908;6.962;2023-12-20T01:44:57;8.60;99.90
44487;DHT22;30191;50.908;6.962;2023-12-20T01:47:22;8.60;99.90
44487;DHT22;30191;50.908;6.962;2023-12-20T01:49:49;8.60;99.90
44487;DHT22;30191;50.908;6.962;2023-12-20T01:52:15;8.60;99.90
44487;DHT22;30191;50.908;6.962;2023-12-20T01:54:41;8.60;99.90
44487;DHT22;30191;50.908;6.962;2023-12-20T01:57:08;8.50;99.90
44487;DHT22;30191;50.908;6.962;2023-12-20T01:59:34;8.50;99.90
44487;DHT22;30191;50.908;6.962;2023-12-20T02:02:00;8.50;99.90
44487;DHT22;30191;50.908;6.962;2023-12-20T02:04:27;8.40;99.90
44487;DHT22;30191;50.908;6.962;2023-12-20T02:06:53;8.40;99.90
44487;DHT22;30191;50.908;6.962;2023-12-20T02:09:20;8.30;99.90
44487;DHT22;30191;50.908;6.962;2023-12-20T02:11:46;8.30;99.90
44487;DHT22;30191;50.908;6.962;2023-12-20T02:14:12;8.20;99.90
44487;DHT22;30191;50.908;6.962;2023-12-20T02:16:37;8.20;99.90
44487;DHT22;30191;50.908;6.962;2023-12-20T02:19:05;8.20;99.90
44487;DHT22;30191;50.908;6.962;2023-12-20T02:21:34;8.20;99.90
44487;DHT22;30191;50.908;6.962;2023-12-20T02:24:02;8.10;99.90
44487;DHT22;30191;50.908;6.962;2023-12-20T02:26:28;8.10;99.90
44487;DHT22;30191;50.908;6.962;2023-12-20T02:28:54;8.00;99.90
44487;DHT22;30191;50.908;6.962;2023-12-20T02:31:23;8.00;99.90
44487;DHT22;30191;50.908;6.962;2023-12-20T02:33:49;8.00;99.90
44487;DHT22;30191;50.908;6.962;2023-12-20T02:36:14;8.00;99.90
44487;DHT22;30191;50.908;6.962;2023-12-20T02:38:40;7.80;99.90
44487;DHT22;30191;50.908;6.962;2023-12-20T02:41:06;7.90;99.90
44487;DHT22;30191;50.908;6.962;2023-12-20T02:43:31;7.70;99.90
44487;DHT22;30191;50.908;6.962;2023-12-20T02:45:57;7.70;99.90
44487;DHT22;30191;50.908;6.962;2023-12-20T02:48:22;7.70;99.90
44487;DHT22;30191;50.908;6.962;2023-12-20T02:50:48;7.70;99.90
44487;DHT22;30191;50.908;6.962;2023-12-20T02:53:14;7.70;99.90
44487;DHT22;30191;50.908;6.962;2023-12-20T02:55:40;7.70;99.90
44487;DHT22;30191;50.908;6.962;2023-12-20T02:58:06;7.80;99.90
44487;DHT22;30191;50.908;6.962;2023-12-20T03:00:31;7.80;99.90
44487;DHT22;30191;50.908;6.962;2023-12-20T03:02:57;7.80;99.90
44487;DHT22;30191;50.908;6.962;2023-12-20T03:05:25;7.80;99.90
44487;DHT22;30191;50.908;6.962;2023-12-20T03:07:50;7.80;99.90
44487;DHT22;30191;50.908;6.962;2023-12-20T03:10:17;7.70;99.90
44487;DHT22;30191;50.908;6.962;2023-12-20T03:12:43;7.80;99.90
44487;DHT22;30191;50.908;6.962;2023-12-20T03:15:09;7.80;99.90
44487;DHT22;30191;50.908;6.962;2023-12-20T03:17:35;7.80;99.90
44487;DHT22;30191;50.908;6.962;2023-12-20T03:20:01;7.80;99.90
44487;DHT22;30191;50.908;6.962;2023-12-20T03:22:26;7.80;99.90
44487;DHT22;30191;50.908;6.962;2023-12-20T03:24:52;7.80;99.90
44487;DHT22;30191;50.908;6.962;2023-12-20T03:27:18;7.80;99.90
44487;DHT22;30191;50.908;6.962;2023-12-20T03:29:43;7.80;99.90
44487;DHT22;30191;50.908;6.962;2023-12-20T03:32:09;7.80;99.90
44487;DHT22;30191;50.908;6.962;2023-12-20T03:34:35;7.80;99.90
44487;DHT22;30191;50.908;6.962;2023-12-20T03:37:00;7.80;99.90
44487;DHT22;30191;50.908;6.962;2023-12-20T03:39:26;7.90;99.90
44487;DHT22;30191;50.908;6.962;2023-12-20T03:41:51;7.90;99.90
44487;DHT22;30191;50.908;6.962;2023-12-20T03:44:17;7.80;99.90
44487;DHT22;30191;50.908;6.962;2023-12-20T03:46:42;7.80;99.90
44487;DHT22;30191;50.908;6.962;2023-12-20T03:49:08;7.90;99.90
44487;DHT22;30191;50.908;6.962;2023-12-20T03:51:34;7.90;99.90
44487;DHT22;30191;50.908;6.962;2023-12-20T03:53:59;7.80;99.90
44487;DHT22;30191;50.908;6.962;2023-12-20T03:56:25;7.80;99.90
44487;DHT22;30191;50.908;6.962;2023-12-20T03:58:50;7.80;99.90
44487;DHT22;30191;50.908;6.962;2023-12-20T04:01:16;7.80;99.90
44487;DHT22;30191;50.908;6.962;2023-12-20T04:03:42;7.80;99.90
44487;DHT22;30191;50.908;6.962;2023-12-20T04:06:07;7.80;99.90
44487;DHT22;30191;50.908;6.962;2023-12-20T04:08:33;7.90;99.90
44487;DHT22;30191;50.908;6.962;2023-12-20T04:10:58;7.90;99.90
44487;DHT22;30191;50.908;6.962;2023-12-20T04:13:24;7.80;99.90
44487;DHT22;30191;50.908;6.962;2023-12-20T04:15:50;7.90;99.90
44487;DHT22;30191;50.908;6.962;2023-12-20T04:18:17;7.90;99.90
44487;DHT22;30191;50.908;6.962;2023-12-20T04:20:42;7.90;99.90
44487;DHT22;30191;50.908;6.962;2023-12-20T04:23:08;7.90;99.90
44487;DHT22;30191;50.908;6.962;2023-12-20T04:25:33;7.80;99.90
44487;DHT22;30191;50.908;6.962;2023-12-20T04:27:59;7.80;99.90
44487;DHT22;30191;50.908;6.962;2023-12-20T04:30:25;7.80;99.90
44487;DHT22;30191;50.908;6.962;2023-12-20T04:32:50;7.80;99.90
44487;DHT22;30191;50.908;6.962;2023-12-20T04:35:16;7.90;99.90
44487;DHT22;30191;50.908;6.962;2023-12-20T04:37:41;7.80;99.90
44487;DHT22;30191;50.908;6.962;2023-12-20T04:40:07;7.80;99.90
44487;DHT22;30191;50.908;6.962;2023-12-20T04:42:33;7.80;99.90
44487;DHT22;30191;50.908;6.962;2023-12-20T04:44:59;7.80;99.90
44487;DHT22;30191;50.908;6.962;2023-12-20T04:47:25;7.90;99.90
44487;DHT22;30191;50.908;6.962;2023-12-20T04:49:50;7.80;99.90
44487;DHT22;30191;50.908;6.962;2023-12-20T04:52:16;7.80;99.90
44487;DHT22;30191;50.908;6.962;2023-12-20T04:54:42;7.80;99.90
44487;DHT22;30191;50.908;6.962;2023-12-20T04:57:07;7.70;99.90
44487;DHT22;30191;50.908;6.962;2023-12-20T04:59:33;7.70;99.90
44487;DHT22;30191;50.908;6.962;2023-12-20T05:01:58;7.70;99.90
44487;DHT22;30191;50.908;6.962;2023-12-20T05:04:24;7.70;99.90
44487;DHT22;30191;50.908;6.962;2023-12-20T05:06:50;7.70;99.90
44487;DHT22;30191;50.908;6.962;2023-12-20T05:09:15;7.70;99.90
44487;DHT22;30191;50.908;6.962;2023-12-20T05:11:41;7.70;99.90
44487;DHT22;30191;50.908;6.962;2023-12-20T05:14:07;7.60;99.90
44487;DHT22;30191;50.908;6.962;2023-12-20T05:16:33;7.60;99.90
44487;DHT22;30191;50.908;6.962;2023-12-20T05:18:58;7.60;99.90
44487;DHT22;30191;50.908;6.962;2023-12-20T05:21:26;7.60;99.90
44487;DHT22;30191;50.908;6.962;2023-12-20T05:23:52;7.60;99.90
44487;DHT22;30191;50.908;6.962;2023-12-20T05:26:17;7.50;99.90
44487;DHT22;30191;50.908;6.962;2023-12-20T05:28:43;7.50;99.90
44487;DHT22;30191;50.908;6.962;2023-12-20T05:31:09;7.50;99.90
44487;DHT22;30191;50.908;6.962;2023-12-20T05:33:34;7.50;99.90
44487;DHT22;30191;50.908;6.962;2023-12-20T05:36:00;7.50;99.90
44487;DHT22;30191;50.908;6.962;2023-12-20T05:38:26;7.40;99.90
44487;DHT22;30191;50.908;6.962;2023-12-20T05:40:52;7.50;99.90
44487;DHT22;30191;50.908;6.962;2023-12-20T05:43:17;7.50;99.90
44487;DHT22;30191;50.908;6.962;2023-12-20T05:45:43;7.50;99.90
44487;DHT22;30191;50.908;6.962;2023-12-20T05:48:08;7.50;99.90
44487;DHT22;30191;50.908;6.962;2023-12-20T05:50:34;7.40;99.90
44487;DHT22;30191;50.908;6.962;2023-12-20T05:53:00;7.40;99.90
44487;DHT22;30191;50.908;6.962;2023-12-20T05:55:26;7.30;99.90
44487;DHT22;30191;50.908;6.962;2023-12-20T05:57:52;7.30;99.90
44487;DHT22;30191;50.908;6.962;2023-12-20T06:00:18;7.40;99.90
44487;DHT22;30191;50.908;6.962;2023-12-20T06:02:44;7.30;99.90
44487;DHT22;30191;50.908;6.962;2023-12-20T06:05:09;7.30;99.90
44487;DHT22;30191;50.908;6.962;2023-12-20T06:07:35;7.30;99.90
44487;DHT22;30191;50.908;6.962;2023-12-20T06:10:00;7.30;99.90
44487;DHT22;30191;50.908;6.962;2023-12-20T06:12:26;7.40;99.90
44487;DHT22;30191;50.908;6.962;2023-12-20T06:14:54;7.40;99.90
44487;DHT22;30191;50.908;6.962;2023-12-20T06:17:19;7.40;99.90
44487;DHT22;30191;50.908;6.962;2023-12-20T06:19:45;7.40;99.90
44487;DHT22;30191;50.908;6.962;2023-12-20T06:22:14;7.40;99.90
44487;DHT22;30191;50.908;6.962;2023-12-20T06:24:39;7.40;99.90
44487;DHT22;30191;50.908;6.962;2023-12-20T06:27:05;7.40;99.90
44487;DHT22;30191;50.908;6.962;2023-12-20T06:29:30;7.40;99.90
44487;DHT22;30191;50.908;6.962;2023-12-20T06:31:56;7.40;99.90
44487;DHT22;30191;50.908;6.962;2023-12-20T06:34:22;7.40;99.90
44487;DHT22;30191;50.908;6.962;2023-12-20T06:36:47;7.40;99.90
44487;DHT22;30191;50.908;6.962;2023-12-20T06:39:13;7.40;99.90
44487;DHT22;30191;50.908;6.962;2023-12-20T06:41:39;7.50;99.90
44487;DHT22;30191;50.908;6.962;2023-12-20T06:44:05;7.40;99.90
44487;DHT22;30191;50.908;6.962;2023-12-20T06:46:31;7.50;99.90
44487;DHT22;30191;50.908;6.962;2023-12-20T06:48:56;7.50;99.90
44487;DHT22;30191;50.908;6.962;2023-12-20T06:51:22;7.50;99.90
44487;DHT22;30191;50.908;6.962;2023-12-20T06:53:53;7.50;99.90
44487;DHT22;30191;50.908;6.962;2023-12-20T06:56:19;7.60;99.90
44487;DHT22;30191;50.908;6.962;2023-12-20T06:58:45;7.50;99.90
44487;DHT22;30191;50.908;6.962;2023-12-20T07:01:14;7.60;99.90
44487;DHT22;30191;50.908;6.962;2023-12-20T07:03:40;7.60;99.90
44487;DHT22;30191;50.908;6.962;2023-12-20T07:06:06;7.60;99.90
44487;DHT22;30191;50.908;6.962;2023-12-20T07:08:32;7.60;99.90
44487;DHT22;30191;50.908;6.962;2023-12-20T07:10:58;7.60;99.90
44487;DHT22;30191;50.908;6.962;2023-12-20T07:13:24;7.60;99.90
44487;DHT22;30191;50.908;6.962;2023-12-20T07:15:50;7.60;99.90
44487;DHT22;30191;50.908;6.962;2023-12-20T07:18:16;7.50;99.90
44487;DHT22;30191;50.908;6.962;2023-12-20T07:20:42;7.60;99.90
44487;DHT22;30191;50.908;6.962;2023-12-20T07:23:08;7.50;99.90
44487;DHT22;30191;50.908;6.962;2023-12-20T07:25:34;7.50;99.90
44487;DHT22;30191;50.908;6.962;2023-12-20T07:27:59;7.50;99.90
44487;DHT22;30191;50.908;6.962;2023-12-20T07:30:25;7.60;99.90
44487;DHT22;30191;50.908;6.962;2023-12-20T07:32:51;7.60;99.90
44487;DHT22;30191;50.908;6.962;2023-12-20T07:35:17;7.60;99.90
44487;DHT22;30191;50.908;6.962;2023-12-20T07:37:43;7.50;99.90
44487;DHT22;30191;50.908;6.962;2023-12-20T07:40:09;7.50;99.90
44487;DHT22;30191;50.908;6.962;2023-12-20T07:42:35;7.50;99.90
44487;DHT22;30191;50.908;6.962;2023-12-20T07:45:01;7.60;99.90
44487;DHT22;30191;50.908;6.962;2023-12-20T07:47:27;7.50;99.90
44487;DHT22;30191;50.908;6.962;2023-12-20T07:49:52;7.50;99.90
44487;DHT22;30191;50.908;6.962;2023-12-20T07:52:18;7.50;99.90
44487;DHT22;30191;50.908;6.962;2023-12-20T07:54:44;7.50;99.90
44487;DHT22;30191;50.908;6.962;2023-12-20T07:57:11;7.60;99.90
44487;DHT22;30191;50.908;6.962;2023-12-20T07:59:36;7.60;99.90
44487;DHT22;30191;50.908;6.962;2023-12-20T08:02:02;7.60;99.90
44487;DHT22;30191;50.908;6.962;2023-12-20T08:04:28;7.60;99.90
44487;DHT22;30191;50.908;6.962;2023-12-20T08:06:53;7.60;99.90
44487;DHT22;30191;50.908;6.962;2023-12-20T08:09:19;7.60;99.90
44487;DHT22;30191;50.908;6.962;2023-12-20T08:11:46;7.70;99.90
44487;DHT22;30191;50.908;6.962;2023-12-20T08:14:12;7.60;99.90
44487;DHT22;30191;50.908;6.962;2023-12-20T08:16:37;7.60;99.90
44487;DHT22;30191;50.908;6.962;2023-12-20T08:19:03;7.60;99.90
44487;DHT22;30191;50.908;6.962;2023-12-20T08:21:29;7.60;99.90
44487;DHT22;30191;50.908;6.962;2023-12-20T08:23:55;7.60;99.90
44487;DHT22;30191;50.908;6.962;2023-12-20T08:26:21;7.50;99.90
44487;DHT22;30191;50.908;6.962;2023-12-20T08:28:48;7.50;99.90
44487;DHT22;30191;50.908;6.962;2023-12-20T08:31:15;7.50;99.90
44487;DHT22;30191;50.908;6.962;2023-12-20T08:33:45;7.60;99.90
44487;DHT22;30191;50.908;6.962;2023-12-20T08:36:11;7.50;99.90
44487;DHT22;30191;50.908;6.962;2023-12-20T08:38:37;7.50;99.90
44487;DHT22;30191;50.908;6.962;2023-12-20T08:41:03;7.40;99.90
44487;DHT22;30191;50.908;6.962;2023-12-20T08:43:31;7.40;99.90
44487;DHT22;30191;50.908;6.962;2023-12-20T08:45:57;7.40;99.90
44487;DHT22;30191;50.908;6.962;2023-12-20T08:48:23;7.50;99.90
44487;DHT22;30191;50.908;6.962;2023-12-20T08:50:48;7.50;99.90
44487;DHT22;30191;50.908;6.962;2023-12-20T08:53:15;7.50;99.90
44487;DHT22;30191;50.908;6.962;2023-12-20T08:55:42;7.50;99.90
44487;DHT22;30191;50.908;6.962;2023-12-20T08:58:08;7.50;99.90
44487;DHT22;30191;50.908;6.962;2023-12-20T09:00:34;7.60;99.90
44487;DHT22;30191;50.908;6.962;2023-12-20T09:03:01;7.60;99.90
44487;DHT22;30191;50.908;6.962;2023-12-20T09:05:26;7.60;99.90
44487;DHT22;30191;50.908;6.962;2023-12-20T09:07:52;7.60;99.90
44487;DHT22;30191;50.908;6.962;2023-12-20T09:10:18;7.70;99.90
44487;DHT22;30191;50.908;6.962;2023-12-20T09:12:49;7.60;99.90
44487;DHT22;30191;50.908;6.962;2023-12-20T09:15:14;7.60;99.90
44487;DHT22;30191;50.908;6.962;2023-12-20T09:17:40;7.60;99.90
44487;DHT22;30191;50.908;6.962;2023-12-20T09:20:07;7.70;99.90
44487;DHT22;30191;50.908;6.962;2023-12-20T09:22:34;7.70;99.90
44487;DHT22;30191;50.908;6.962;2023-12-20T09:24:59;7.70;99.90
44487;DHT22;30191;50.908;6.962;2023-12-20T09:27:25;7.70;99.90
44487;DHT22;30191;50.908;6.962;2023-12-20T09:29:51;7.70;99.90
44487;DHT22;30191;50.908;6.962;2023-12-20T09:32:18;7.70;99.90
44487;DHT22;30191;50.908;6.962;2023-12-20T09:34:46;7.70;99.90
44487;DHT22;30191;50.908;6.962;2023-12-20T09:37:13;7.60;99.90
44487;DHT22;30191;50.908;6.962;2023-12-20T09:39:38;7.60;99.90
44487;DHT22;30191;50.908;6.962;2023-12-20T09:42:05;7.60;99.90
44487;DHT22;30191;50.908;6.962;2023-12-20T09:44:32;7.70;99.90
44487;DHT22;30191;50.908;6.962;2023-12-20T09:47:05;7.70;99.90
44487;DHT22;30191;50.908;6.962;2023-12-20T09:49:33;7.70;99.90
44487;DHT22;30191;50.908;6.962;2023-12-20T09:52:00;7.70;99.90
44487;DHT22;30191;50.908;6.962;2023-12-20T09:54:27;7.70;99.90
44487;DHT22;30191;50.908;6.962;2023-12-20T09:56:54;7.60;99.90
44487;DHT22;30191;50.908;6.962;2023-12-20T09:59:19;7.70;99.90
44487;DHT22;30191;50.908;6.962;2023-12-20T10:01:45;7.70;99.90
44487;DHT22;30191;50.908;6.962;2023-12-20T10:04:12;7.70;99.90
44487;DHT22;30191;50.908;6.962;2023-12-20T10:06:41;7.70;99.90
44487;DHT22;30191;50.908;6.962;2023-12-20T10:09:07;7.70;99.90
44487;DHT22;30191;50.908;6.962;2023-12-20T10:11:36;7.70;99.90
44487;DHT22;30191;50.908;6.962;2023-12-20T10:14:03;7.80;99.90
44487;DHT22;30191;50.908;6.962;2023-12-20T10:16:30;7.80;99.90
44487;DHT22;30191;50.908;6.962;2023-12-20T10:18:56;7.80;99.90
44487;DHT22;30191;50.908;6.962;2023-12-20T10:21:22;7.80;99.90
44487;DHT22;30191;50.908;6.962;2023-12-20T10:23:51;7.80;99.90
44487;DHT22;30191;50.908;6.962;2023-12-20T10:26:25;7.70;99.90
44487;DHT22;30191;50.908;6.962;2023-12-20T10:28:53;7.80;99.90
44487;DHT22;30191;50.908;6.962;2023-12-20T10:31:29;7.80;99.90
44487;DHT22;30191;50.908;6.962;2023-12-20T10:33:59;7.80;99.90
44487;DHT22;30191;50.908;6.962;2023-12-20T10:36:26;7.90;99.90
44487;DHT22;30191;50.908;6.962;2023-12-20T10:38:53;7.90;99.90
44487;DHT22;30191;50.908;6.962;2023-12-20T10:41:27;8.00;99.90
44487;DHT22;30191;50.908;6.962;2023-12-20T10:44:02;7.90;99.90
44487;DHT22;30191;50.908;6.962;2023-12-20T10:46:29;8.00;99.90
44487;DHT22;30191;50.908;6.962;2023-12-20T10:48:56;8.00;99.90
44487;DHT22;30191;50.908;6.962;2023-12-20T10:51:23;8.00;99.90
44487;DHT22;30191;50.908;6.962;2023-12-20T10:53:52;8.00;99.90
44487;DHT22;30191;50.908;6.962;2023-12-20T10:56:19;8.00;99.90
44487;DHT22;30191;50.908;6.962;2023-12-20T10:58:45;7.90;99.90
44487;DHT22;30191;50.908;6.962;2023-12-20T11:01:16;8.00;99.90
44487;DHT22;30191;50.908;6.962;2023-12-20T11:03:48;7.90;99.90
44487;DHT22;30191;50.908;6.962;2023-12-20T11:09:08;7.90;99.90
44487;DHT22;30191;50.908;6.962;2023-12-20T11:14:27;8.00;99.90
44487;DHT22;30191;50.908;6.962;2023-12-20T11:17:10;8.00;99.90
44487;DHT22;30191;50.908;6.962;2023-12-20T11:22:30;8.10;99.90
44487;DHT22;30191;50.908;6.962;2023-12-20T11:25:22;8.10;99.90
44487;DHT22;30191;50.908;6.962;2023-12-20T11:28:10;8.10;99.90
44487;DHT22;30191;50.908;6.962;2023-12-20T11:30:46;8.10;99.90
44487;DHT22;30191;50.908;6.962;2023-12-20T11:33:14;8.10;99.90
44487;DHT22;30191;50.908;6.962;2023-12-20T11:35:40;8.10;99.90
44487;DHT22;30191;50.908;6.962;2023-12-20T11:38:10;8.10;99.90
44487;DHT22;30191;50.908;6.962;2023-12-20T11:40:36;8.10;99.90
44487;DHT22;30191;50.908;6.962;2023-12-20T11:43:02;8.10;99.90
44487;DHT22;30191;50.908;6.962;2023-12-20T11:45:28;8.10;99.90
44487;DHT22;30191;50.908;6.962;2023-12-20T11:47:56;8.10;99.90
44487;DHT22;30191;50.908;6.962;2023-12-20T11:50:23;8.10;99.90
44487;DHT22;30191;50.908;6.962;2023-12-20T11:52:50;8.10;99.90
44487;DHT22;30191;50.908;6.962;2023-12-20T11:55:17;8.10;99.90
44487;DHT22;30191;50.908;6.962;2023-12-20T11:57:43;8.10;99.90
44487;DHT22;30191;50.908;6.962;2023-12-20T12:00:10;8.20;99.90
44487;DHT22;30191;50.908;6.962;2023-12-20T12:02:36;8.10;99.90
44487;DHT22;30191;50.908;6.962;2023-12-20T12:05:02;8.10;99.90
44487;DHT22;30191;50.908;6.962;2023-12-20T12:07:31;8.10;99.90
44487;DHT22;30191;50.908;6.962;2023-12-20T12:09:57;8.10;99.90
44487;DHT22;30191;50.908;6.962;2023-12-20T12:12:23;8.10;99.90
44487;DHT22;30191;50.908;6.962;2023-12-20T12:14:50;8.10;99.90
44487;DHT22;30191;50.908;6.962;2023-12-20T12:17:16;8.10;99.90
44487;DHT22;30191;50.908;6.962;2023-12-20T12:19:43;8.10;99.90
44487;DHT22;30191;50.908;6.962;2023-12-20T12:22:12;8.20;99.90
44487;DHT22;30191;50.908;6.962;2023-12-20T12:24:43;8.20;99.90
44487;DHT22;30191;50.908;6.962;2023-12-20T12:27:09;8.20;99.90
44487;DHT22;30191;50.908;6.962;2023-12-20T12:29:36;8.20;99.90
44487;DHT22;30191;50.908;6.962;2023-12-20T12:32:08;8.20;99.90
44487;DHT22;30191;50.908;6.962;2023-12-20T12:34:35;8.20;99.90
44487;DHT22;30191;50.908;6.962;2023-12-20T12:37:02;8.20;99.90
44487;DHT22;30191;50.908;6.962;2023-12-20T12:39:29;8.30;99.90
44487;DHT22;30191;50.908;6.962;2023-12-20T12:41:55;8.20;99.90
44487;DHT22;30191;50.908;6.962;2023-12-20T12:44:21;8.20;99.90
44487;DHT22;30191;50.908;6.962;2023-12-20T12:46:49;8.20;99.90
44487;DHT22;30191;50.908;6.962;2023-12-20T12:49:19;8.20;99.90
44487;DHT22;30191;50.908;6.962;2023-12-20T12:51:45;8.20;99.90
44487;DHT22;30191;50.908;6.962;2023-12-20T12:54:11;8.20;99.90
44487;DHT22;30191;50.908;6.962;2023-12-20T12:56:38;8.20;99.90
44487;DHT22;30191;50.908;6.962;2023-12-20T12:59:04;8.20;99.90
44487;DHT22;30191;50.908;6.962;2023-12-20T13:01:31;8.20;99.90
44487;DHT22;30191;50.908;6.962;2023-12-20T13:03:57;8.20;99.90
44487;DHT22;30191;50.908;6.962;2023-12-20T13:06:22;8.20;99.90
44487;DHT22;30191;50.908;6.962;2023-12-20T13:08:48;8.20;99.90
44487;DHT22;30191;50.908;6.962;2023-12-20T13:11:14;8.20;99.90
44487;DHT22;30191;50.908;6.962;2023-12-20T13:13:39;8.20;99.90
44487;DHT22;30191;50.908;6.962;2023-12-20T13:16:05;8.10;99.90
44487;DHT22;30191;50.908;6.962;2023-12-20T13:18:31;8.20;99.90
44487;DHT22;30191;50.908;6.962;2023-12-20T13:20:57;8.10;99.90
44487;DHT22;30191;50.908;6.962;2023-12-20T13:23:22;8.00;99.90
44487;DHT22;30191;50.908;6.962;2023-12-20T13:25:48;8.00;99.90
44487;DHT22;30191;50.908;6.962;2023-12-20T13:28:14;8.00;99.90
44487;DHT22;30191;50.908;6.962;2023-12-20T13:30:40;8.10;99.90
44487;DHT22;30191;50.908;6.962;2023-12-20T13:33:06;8.00;99.90
44487;DHT22;30191;50.908;6.962;2023-12-20T13:35:32;8.10;99.90
44487;DHT22;30191;50.908;6.962;2023-12-20T13:37:58;8.00;99.90
44487;DHT22;30191;50.908;6.962;2023-12-20T13:40:24;8.10;99.90
44487;DHT22;30191;50.908;6.962;2023-12-20T13:42:50;8.10;99.90
44487;DHT22;30191;50.908;6.962;2023-12-20T13:45:16;8.10;99.90
44487;DHT22;30191;50.908;6.962;2023-12-20T13:47:42;8.10;99.90
44487;DHT22;30191;50.908;6.962;2023-12-20T13:50:07;8.20;99.90
44487;DHT22;30191;50.908;6.962;2023-12-20T13:52:33;8.20;99.90
44487;DHT22;30191;50.908;6.962;2023-12-20T13:54:59;8.10;99.90
44487;DHT22;30191;50.908;6.962;2023-12-20T13:57:24;8.10;99.90
44487;DHT22;30191;50.908;6.962;2023-12-20T13:59:50;8.20;99.90
44487;DHT22;30191;50.908;6.962;2023-12-20T14:02:16;8.20;99.90
44487;DHT22;30191;50.908;6.962;2023-12-20T14:04:44;8.20;99.90
44487;DHT22;30191;50.908;6.962;2023-12-20T14:07:10;8.20;99.90
44487;DHT22;30191;50.908;6.962;2023-12-20T14:09:36;8.20;99.90
44487;DHT22;30191;50.908;6.962;2023-12-20T14:12:01;8.10;99.90
44487;DHT22;30191;50.908;6.962;2023-12-20T14:14:27;8.20;99.90
44487;DHT22;30191;50.908;6.962;2023-12-20T14:16:53;8.20;99.90
44487;DHT22;30191;50.908;6.962;2023-12-20T14:19:19;8.20;99.90
44487;DHT22;30191;50.908;6.962;2023-12-20T14:21:44;8.20;99.90
44487;DHT22;30191;50.908;6.962;2023-12-20T14:24:12;8.20;99.90
44487;DHT22;30191;50.908;6.962;2023-12-20T14:26:43;8.20;99.90
44487;DHT22;30191;50.908;6.962;2023-12-20T14:29:08;8.30;99.90
44487;DHT22;30191;50.908;6.962;2023-12-20T14:31:34;8.30;99.90
44487;DHT22;30191;50.908;6.962;2023-12-20T14:34:00;8.40;99.90
44487;DHT22;30191;50.908;6.962;2023-12-20T14:36:29;8.30;99.90
44487;DHT22;30191;50.908;6.962;2023-12-20T14:38:57;8.30;99.90
44487;DHT22;30191;50.908;6.962;2023-12-20T14:41:23;8.40;99.90
44487;DHT22;30191;50.908;6.962;2023-12-20T14:43:50;8.40;99.90
44487;DHT22;30191;50.908;6.962;2023-12-20T14:46:17;8.40;99.90
44487;DHT22;30191;50.908;6.962;2023-12-20T14:48:43;8.40;99.90
44487;DHT22;30191;50.908;6.962;2023-12-20T14:51:08;8.40;99.90
44487;DHT22;30191;50.908;6.962;2023-12-20T14:53:34;8.40;99.90
44487;DHT22;30191;50.908;6.962;2023-12-20T14:56:03;8.50;99.90
44487;DHT22;30191;50.908;6.962;2023-12-20T14:58:29;8.50;99.90
44487;DHT22;30191;50.908;6.962;2023-12-20T15:00:55;8.40;99.90
44487;DHT22;30191;50.908;6.962;2023-12-20T15:03:21;8.50;99.90
44487;DHT22;30191;50.908;6.962;2023-12-20T15:05:47;8.40;99.90
44487;DHT22;30191;50.908;6.962;2023-12-20T15:08:13;8.50;99.90
44487;DHT22;30191;50.908;6.962;2023-12-20T15:10:39;8.50;99.90
44487;DHT22;30191;50.908;6.962;2023-12-20T15:13:05;8.50;99.90
44487;DHT22;30191;50.908;6.962;2023-12-20T15:15:31;8.50;99.90
44487;DHT22;30191;50.908;6.962;2023-12-20T15:18:02;8.50;99.90
44487;DHT22;30191;50.908;6.962;2023-12-20T15:20:30;8.50;99.90
44487;DHT22;30191;50.908;6.962;2023-12-20T15:22:58;8.60;99.90
44487;DHT22;30191;50.908;6.962;2023-12-20T15:25:30;8.60;99.90
44487;DHT22;30191;50.908;6.962;2023-12-20T15:27:56;8.50;99.90
44487;DHT22;30191;50.908;6.962;2023-12-20T15:30:21;8.60;99.90
44487;DHT22;30191;50.908;6.962;2023-12-20T15:32:49;8.60;99.90
44487;DHT22;30191;50.908;6.962;2023-12-20T15:35:15;8.60;99.90
44487;DHT22;30191;50.908;6.962;2023-12-20T15:37:41;8.60;99.90
44487;DHT22;30191;50.908;6.962;2023-12-20T15:40:10;8.50;99.90
44487;DHT22;30191;50.908;6.962;2023-12-20T15:42:37;8.50;99.90
44487;DHT22;30191;50.908;6.962;2023-12-20T15:45:04;8.50;99.90
44487;DHT22;30191;50.908;6.962;2023-12-20T15:47:30;8.50;99.90